Chokio, Minnesota
Current Conditions -  °F | °C
As of 5:45 PM on Wednesday 22 Oct 2014 (Local Time) from KMOX Reporting Station
Drizzle Drizzle  
Wind Chill: 63°   Ceiling: 4900
Heat Index: 63°   Visibility: 10mi
Dew Point: 52°   Wind: 9mph
Humidity: 68%   Direction: 150°SSE
Pressure: 29.89"   Gusts: NA
Location:  45.57°N, 96.17°W
Report Text: KMOX 222245Z AUTO 15008KT 10SM -DZ OVC049 17/11 A2989 RMK AO2
Loading
Personal Weather Stations






























Interactive Weather Map
Tropical Storm Tracking
New forecast layout! Learn more

10-Day Weather Forecast

Advertisements
Track Severe Weather on mobile